map of CUL home
CUL - Airport
Location
City:  Culiacán, Sinaloa, México
Name:Federal de Bachigualato International Airport
ICAO:MMCL
IATA:CUL

Details
Type:Airport (Aerodrome, Airfield)
Use:Public/Civil, Military, International (customs port of entry)
Latitude:24°45'52"N (24.764547)
Longitude:107°28'29"W (-107.474716)
Datum:other
Elevation:108 ft (33 m)
Variation:7.75°E (WMM2015 magnetic declination)
-0.09° annual change
Runways:1
Longest:7546 × 148 ft (2300 × 45 m), paved

Time
Time Zone:UTC-7 (DST-6)
Local Time:

Weather
METAR:MMCL 170441Z 00000KT 10SM SCT040 BKN080 20/13 A3006 RMK 8/570 HZY

Related Locations
Nearby:
Farthest:RRG: 11763 mi / 18930 km
Plaine Corail [Sir Gaëtan Duval Airport (Plaine Corail Airport)], Rodrigues Island, MU

Find:

   beyond  
but within

Other Information
Maps:
NOTAMs:
Links:
Sources:

  
  • flag of México
  • flag of Sinaloa
  

Sectional Chart

Flight Planning
at skyvector.com

Satellite Image

Google Maps Satellite view

 

Copyright © 2004-2018 Karl L. Swartz. All rights reserved.
The Great Circle Mapper name and logo are trademarks of the Great Circle Mapper.
All other trademarks mentioned herein belong to their respective owners.
Please see credits for attibutions and further copyright information.

  Follow gcmap on Facebook Follow gcmap on Twitter Follow gcmap on Google+ GCmap on LinkedIn

hCard Microformat

Geo Microformat